ADDS METAR Data INFO
IDs: Format: Raw Decoded Include TAF

Data at: 0150 UTC 21 Apr 2018

KSHR 210053Z AUTO 14011KT 10SM CLR 13/01 A3007 RMK AO2 SLP180 T01330006
KSHR 202353Z AUTO VRB05KT 10SM SCT065 SCT100 15/01 A3007 RMK AO2 SLP176 T01500006 10178 20133 53003
KSHR 202253Z AUTO 00000KT 10SM SCT060 OVC085 15/01 A3005 RMK AO2 SLP174 T01500006
KSHR 202153Z AUTO 05010KT 010V080 10SM SCT060 17/02 A3005 RMK AO2 SLP165 T01670017
KSHR 202053Z AUTO 34008G15KT 10SM CLR 16/01 A3005 RMK AO2 SLP168 T01560006 55007
KSHR 201953Z AUTO 03007G14KT 10SM CLR 15/01 A3005 RMK AO2 SLP167 T01500006
KSHR 201853Z AUTO 01010KT 10SM CLR 14/01 A3006 RMK AO2 SLP169 T01440011
KSHR 201753Z AUTO VRB05KT 10SM CLR 13/01 A3008 RMK AO2 SLP177 T01330011 10139 20044 58003
KSHR 201653Z AUTO 31005KT 10SM CLR 11/01 A3008 RMK AO2 SLP183 T01110006
KSHR 201553Z AUTO 03006KT 10SM CLR 09/01 A3009 RMK AO2 SLP189 T00940006
KSHR 201453Z AUTO 33006KT 10SM CLR 08/02 A3008 RMK AO2 SLP189 T00780017 51021
KSHR 201353Z AUTO 29008KT 10SM CLR 06/02 A3007 RMK AO2 SLP180 T00610017
KSHR 201253Z AUTO 00000KT 10SM CLR 05/01 A3004 RMK AO2 SLP169 T00500011
KSHR 201153Z AUTO 19004KT 10SM CLR 06/01 A3002 RMK AO2 SLP158 T00560011 10100 20044 51006
KSHR 201053Z AUTO 18005KT 10SM CLR 05/01 A3001 RMK AO2 SLP156 T00500006
KSHR 200953Z AUTO 15008KT 10SM CLR 07/00 A3001 RMK AO2 SLP153 T00720000
KSHR 200853Z AUTO 12010KT 10SM CLR 09/00 A3000 RMK AO2 SLP148 T00890000 58001
KSHR 200753Z AUTO 15006KT 10SM CLR 09/00 A3000 RMK AO2 SLP150 T00890000
KSHR 200653Z AUTO 17009KT 10SM CLR 09/01 A3000 RMK AO2 SLP149 T00940006 401721022
KSHR 200553Z AUTO 12013G20KT 10SM CLR 10/00 A3000 RMK AO2 SLP151 T01000000 10161 20078 58005
KSHR 200453Z AUTO 00000KT 10SM CLR 09/00 A3001 RMK AO2 SLP159 T00890000
KSHR 200353Z AUTO 09006KT 10SM CLR 09/M01 A3002 RMK AO2 SLP160 T00941006
KSHR 200253Z AUTO 17006KT 10SM CLR 09/M01 A3002 RMK AO2 SLP161 T00941011 53006
KSHR 200153Z AUTO 13007KT 10SM CLR 13/M02 A3000 RMK AO2 SLP155 T01281022
KSHR 200053Z AUTO 12012KT 10SM CLR 14/M03 A3000 RMK AO2 SLP156 T01441028
KSHR 192353Z AUTO 13011KT 10SM CLR 16/M03 A3000 RMK AO2 SLP154 T01611033 10172 20128 55007
KSHR 192253Z AUTO 12012G18KT 10SM CLR 16/M04 A2999 RMK AO2 PK WND 15026/2201 SLP153 T01611039
KSHR 192153Z AUTO 15017G25KT 10SM CLR 16/M04 A3000 RMK AO2 PK WND 15030/2106 SLP160 T01611039
KSHR 192053Z AUTO 15020G30KT 10SM CLR 16/M03 A3002 RMK AO2 PK WND 15032/2011 SLP165 T01561033 56024
KSHR 191953Z AUTO 14018G29KT 10SM CLR 15/M03 A3004 RMK AO2 PK WND 13035/1915 SLP179 T01501033
KSHR 191853Z AUTO 13018G31KT 10SM CLR 14/M03 A3007 RMK AO2 PK WND 12034/1829 SLP186 T01441028
KSHR 191753Z AUTO 13021G29KT 10SM CLR 13/M03 A3010 RMK AO2 PK WND 14035/1708 SLP201 T01281033 10133 20039 58011
KSHR 191653Z AUTO 14025G34KT 10SM CLR 12/M04 A3011 RMK AO2 PK WND 13035/1625 SLP205 T01171039
KSHR 191553Z AUTO 14022G29KT 10SM CLR 11/M04 A3013 RMK AO2 PK WND 13029/1547 SLP212 T01111044
KSHR 191453Z AUTO 13017G24KT 10SM CLR 10/M04 A3014 RMK AO2 PK WND 14026/1434 SLP213 T01001044 58009
KSHR 191353Z AUTO 15013KT 10SM CLR 08/M04 A3015 RMK AO2 SLP214 T00781039